Jackson, MN

3:01 PM CDT on July 06, 2015 (GMT -0500)
Jackson Municipal | | Change Station
CLOSE
Current Station
Airport
Location: Jackson,
Elevation: 1447 ft
Nearby Weather Stations

Elev 1447 ft 43.65 °N, 94.99 °W | Updated 8 minutes ago

Haze
Haze
70 °F
Feels Like 70 °F
N
20
Wind Variable Wind from North
Gusts 28 mph

Today
High -- | Low -- °F
--% Chance of Precip.
Yesterday
High -- | Low -- °F
Precip. -- in
5:45 AM 9:03 PM
Waning Gibbous, 72% visible
Pressure 29.98 in
Visibility 3.0 miles
Clouds Mostly Cloudy 2800 ft
Mostly Cloudy 9000 ft
Mostly Cloudy 12000 ft
Dew Point 59 °F
Humidity 68%
Rainfall 1.24 in
Snow Depth Not available.
UV 6 out of 12
Pollen .60 out of 12
Air Quality Not available.
Flu Activity Not available.
METAR KMJQ 061953Z AUTO 01017G24KT 3SM HZ BKN028 BKN090 BKN120 21/15 A2998 RMK AO2

More Conditions Fewer Conditions

Pressure 29.98 in
Visibility 3.0 miles
Clouds Mostly Cloudy 2800 ft
Mostly Cloudy 9000 ft
Mostly Cloudy 12000 ft
Dew Point 59 °F
Humidity 68%
Rainfall 1.24 in
Snow Depth Not available.
UV 6 out of 12
Pollen .60 out of 12
Air Quality Not available.
Flu Activity Not available.
METAR KMJQ 061953Z AUTO 01017G24KT 3SM HZ BKN028 BKN090 BKN120 21/15 A2998 RMK AO2

More Conditions Fewer Conditions

10-Day Weather Forecast

×

Almanac

Astronomy

Jul. 06, 2015 Rise Set
Actual Time
Civil Twilight
Nautical Twilight
Astronomical Twilight
Moon
Length of Visible Light
Length of Day
Tomorrow will be .
, % of the Moon is Illuminated

Today's Extremes

State Highs State Lows

Community

WunderPhotos

Upload Photos

1,835,625 photos uploaded!

WunderBlogs® & News

Nearby

Air Quality

  Air Quality AQ Index Pollutant
Not available.

Snow Depth

Station Depth Elevation

Earthquake Activity

City Distance Mag. Time & Date
Minimum magnitude displayed is 2.5.

Coastal Water Temperatures

Place Temperature

Stations

Nearby Weather Stations

Station Location Temp. Windchill Dew Point Humidity Wind Precip. Elev Updated Type